Main page
METAR-TAF:

METAR-TAF

Airports :

Current weather observation

The report was made 1 hour and 34 minutes ago, at 03:00 UTC
Wind 2 kt from the South/Southeast
Temperature 7°C
Humidity 76%
Pressure 1019 hPa
Visibility 10 km or more
Clear sky

METAR: LBPL 250300Z 15002KT 9999 SKC 07/03 Q1019

Time: 04:34 (04:34 UTC)


TAF: missing

Weather observations and forecasts of more than 4000 airports (METAR and TAF reports).

The available stations are represented by yellow and red dots on the map.

Hover mouse over dot to see the name of the station.

Then click to see weather observations and forecasts.

To change the map : click on the green buttons with a black cross to zoom in, on the green button with a dash to zoom out, or on the green arrows for adjacent maps.


METAR-TAF: